Time;durP1;ratioP1;P1;durP2;ratioP2;P2;SDS_P1;SDS_P2;PMS_P1;PMS_P2;Temp;Humidity;BMP_temperature;BMP_pressure;BME280_temperature;BME280_humidity;BME280_pressure;Samples;Min_cycle;Max_cycle;Signal;HPM_P1;HPM_P2
2022/03/11 00:01:00;;;;;;;;;;;;;;;6.68;70.65;101673.66;5268127;28;19965;-65
2022/03/11 00:03:30;;;;;;;;;;;;;;;6.62;70.71;101671.84;5249409;28;19999;-65
2022/03/11 00:06:00;;;;;;;;;;;;;;;6.54;71.04;101674.75;5249377;28;19923;-65
2022/03/11 00:08:31;;;;;;;;;;;;;;;6.46;71.22;101666.91;5267765;28;20322;-65
2022/03/11 00:11:01;;;;;;;;;;;;;;;6.42;71.42;101665.69;5249294;28;19965;-65
2022/03/11 00:13:31;;;;;;;;;;;;;;;6.37;71.66;101666.28;5249348;28;19916;-65
2022/03/11 00:16:02;;;;;;;;;;;;;;;6.38;71.69;101664.44;5249360;28;19916;-65
2022/03/11 00:18:33;;;;;;;;;;;;;;;6.37;71.65;101663.63;5249204;28;19928;-65
2022/03/11 00:21:03;;;;;;;;;;;;;;;6.27;72.29;101665.09;5249682;28;19912;-65
2022/03/11 00:23:33;;;;;;;;;;;;;;;6.17;72.18;101660.13;5267229;28;19919;-64
2022/03/11 00:26:03;;;;;;;;;;;;;;;6.08;72.41;101659.50;5249187;28;19939;-65
2022/03/11 00:28:34;;;;;;;;;;;;;;;6.01;73.01;101653.34;5249042;28;20368;-64
2022/03/11 00:31:05;;;;;;;;;;;;;;;5.90;73.50;101656.63;5249044;28;20346;-64
2022/03/11 00:33:35;;;;;;;;;;;;;;;5.87;73.84;101651.66;5248717;28;19912;-64
2022/03/11 00:36:06;;;;;;;;;;;;;;;5.83;74.08;101645.03;5249119;28;20407;-64
2022/03/11 00:38:37;;;;;;;;;;;;;;;5.84;73.89;101646.69;5249297;28;19912;-64
2022/03/11 00:41:07;;;;;;;;;;;;;;;5.85;74.12;101639.47;5267301;28;19913;-64
2022/03/11 00:43:38;;;;;;;;;;;;;;;5.87;73.94;101635.56;5248710;28;20057;-64
2022/03/11 00:46:08;;;;;;;;;;;;;;;5.85;73.79;101634.94;5249033;28;19916;-64
2022/03/11 00:48:39;;;;;;;;;;;;;;;5.83;74.15;101639.69;5249006;28;19919;-65
2022/03/11 00:51:09;;;;;;;;;;;;;;;5.77;74.37;101635.97;5249155;28;19919;-65
2022/03/11 00:53:39;;;;;;;;;;;;;;;5.74;74.44;101635.56;5248644;28;19912;-65
2022/03/11 00:56:10;;;;;;;;;;;;;;;5.74;74.44;101630.22;5248931;28;20294;-65
2022/03/11 00:58:40;;;;;;;;;;;;;;;5.72;74.60;101632.28;5252083;28;19934;-65
2022/03/11 01:01:10;;;;;;;;;;;;;;;5.68;74.73;101625.66;5252922;28;19918;-65
2022/03/11 01:03:41;;;;;;;;;;;;;;;5.65;74.76;101636.78;5252694;28;19973;-65
2022/03/11 01:06:11;;;;;;;;;;;;;;;5.59;74.99;101621.53;5252866;28;19916;-65
2022/03/11 01:08:41;;;;;;;;;;;;;;;5.41;75.76;101620.28;5253231;28;19916;-64
2022/03/11 01:11:12;;;;;;;;;;;;;;;5.35;76.01;101615.72;5252891;28;20397;-64
2022/03/11 01:13:42;;;;;;;;;;;;;;;5.32;76.45;101608.09;5252715;28;19916;-64
2022/03/11 01:16:13;;;;;;;;;;;;;;;5.31;77.04;101611.81;5252844;28;19962;-65
2022/03/11 01:18:43;;;;;;;;;;;;;;;5.34;76.91;101614.09;5270772;28;19980;-64
2022/03/11 01:21:13;;;;;;;;;;;;;;;5.29;77.01;101600.47;5252598;28;20375;-64
2022/03/11 01:23:44;;;;;;;;;;;;;;;5.22;77.34;101593.44;5252408;28;19912;-65
2022/03/11 01:26:16;;;;;;;;;;;;;;;5.22;77.66;101588.91;5252607;28;19920;-64
2022/03/11 01:28:46;;;;;;;;;;;;;;;5.23;77.71;101590.56;5252584;28;19912;-65
2022/03/11 01:31:17;;;;;;;;;;;;;;;5.26;77.67;101578.63;5252599;28;19915;-64
2022/03/11 01:33:47;;;;;;;;;;;;;;;5.23;77.80;101585.22;5252008;28;19912;-65
2022/03/11 01:36:18;;;;;;;;;;;;;;;5.21;78.18;101573.03;5252342;28;19916;-65
2022/03/11 01:38:48;;;;;;;;;;;;;;;5.24;77.90;101565.44;5252194;28;19912;-64
2022/03/11 01:41:18;;;;;;;;;;;;;;;5.20;77.94;101574.09;5252384;28;19959;-64
2022/03/11 01:43:53;;;;;;;;;;;;;;;5.17;78.13;101569.16;5252082;28;20372;-64
2022/03/11 01:46:23;;;;;;;;;;;;;;;5.19;78.32;101564.41;5252249;28;19916;-64
2022/03/11 01:48:54;;;;;;;;;;;;;;;5.20;77.96;101569.53;5270495;28;20379;-65
2022/03/11 01:51:25;;;;;;;;;;;;;;;5.23;77.81;101561.09;5252194;28;19916;-65
2022/03/11 01:53:55;;;;;;;;;;;;;;;5.25;77.49;101561.72;5251621;28;19912;-64
2022/03/11 01:56:26;;;;;;;;;;;;;;;5.17;77.73;101561.13;5252356;28;19947;-65
2022/03/11 01:58:57;;;;;;;;;;;;;;;5.09;78.35;101551.41;5251927;28;20352;-64
2022/03/11 02:01:27;;;;;;;;;;;;;;;5.05;78.11;101553.66;5252036;28;19916;-64
2022/03/11 02:03:58;;;;;;;;;;;;;;;5.03;78.46;101549.53;5251399;28;19935;-64
2022/03/11 02:06:28;;;;;;;;;;;;;;;5.09;78.42;101541.53;5251735;28;19963;-64
2022/03/11 02:09:00;;;;;;;;;;;;;;;5.16;78.09;101540.72;5250908;28;19918;-64
2022/03/11 02:11:30;;;;;;;;;;;;;;;5.14;77.93;101537.44;5269811;28;19913;-64
2022/03/11 02:14:01;;;;;;;;;;;;;;;5.15;77.66;101537.22;5251570;28;19920;-65
2022/03/11 02:16:32;;;;;;;;;;;;;;;5.12;77.75;101537.63;5251694;28;20380;-64
2022/03/11 02:19:05;;;;;;;;;;;;;;;5.08;77.88;101531.03;5251446;28;20295;-64
2022/03/11 02:21:45;;;;;;;;;;;;;;;4.96;78.15;101533.47;5251479;28;19912;-65
2022/03/11 02:24:16;;;;;;;;;;;;;;;4.92;78.47;101528.72;5251450;28;20368;-64
2022/03/11 02:26:46;;;;;;;;;;;;;;;4.93;78.57;101522.34;5251541;28;19916;-65
2022/03/11 02:29:16;;;;;;;;;;;;;;;4.98;78.29;101522.56;5251538;28;19913;-64
2022/03/11 02:31:47;;;;;;;;;;;;;;;5.02;78.07;101521.94;5251179;28;19912;-65
2022/03/11 02:34:17;;;;;;;;;;;;;;;4.97;78.04;101515.56;5251173;28;19973;-65
2022/03/11 02:36:48;;;;;;;;;;;;;;;4.95;78.11;101520.28;5251048;28;19927;-64
2022/03/11 02:39:18;;;;;;;;;;;;;;;4.88;78.13;101511.44;5250910;28;19912;-64
2022/03/11 02:41:51;;;;;;;;;;;;;;;4.93;78.13;101523.16;5251031;28;20015;-64
2022/03/11 02:44:22;;;;;;;;;;;;;;;4.96;77.86;101508.56;5251333;28;19947;-64
2022/03/11 02:46:53;;;;;;;;;;;;;;;4.94;78.22;101507.94;5250941;28;19938;-65
2022/03/11 02:49:23;;;;;;;;;;;;;;;4.84;78.50;101507.50;5251073;28;19912;-65
2022/03/11 02:51:54;;;;;;;;;;;;;;;4.79;78.53;101518.81;5250772;28;20284;-65
2022/03/11 02:54:24;;;;;;;;;;;;;;;4.83;78.39;101500.50;5268649;28;19919;-65
2022/03/11 02:56:55;;;;;;;;;;;;;;;4.90;78.06;101509.38;5251077;28;19912;-65
2022/03/11 02:59:25;;;;;;;;;;;;;;;4.85;78.18;101499.28;5250473;28;20384;-64
2022/03/11 03:01:55;;;;;;;;;;;;;;;4.80;78.19;101492.88;5250286;28;19916;-65
2022/03/11 03:04:26;;;;;;;;;;;;;;;4.78;77.72;101489.59;5268809;28;19919;-65
2022/03/11 03:06:56;;;;;;;;;;;;;;;4.78;77.64;101489.59;5250106;28;20295;-65
2022/03/11 03:09:26;;;;;;;;;;;;;;;4.74;77.77;101489.97;5250611;28;19912;-65
2022/03/11 03:11:56;;;;;;;;;;;;;;;4.80;77.40;101487.53;5250322;28;19912;-65
2022/03/11 03:14:27;;;;;;;;;;;;;;;4.80;77.42;101484.84;5250280;28;20334;-65
2022/03/11 03:16:57;;;;;;;;;;;;;;;4.85;76.87;101482.41;5250377;28;20387;-65
2022/03/11 03:19:27;;;;;;;;;;;;;;;4.87;77.11;101477.69;5250301;28;19973;-65
2022/03/11 03:21:58;;;;;;;;;;;;;;;4.93;76.59;101472.31;5249886;28;19912;-65
2022/03/11 03:24:28;;;;;;;;;;;;;;;4.90;76.66;101482.63;5250034;28;19919;-65
2022/03/11 03:26:58;;;;;;;;;;;;;;;4.91;76.41;101477.03;5268318;28;19973;-65
2022/03/11 03:29:29;;;;;;;;;;;;;;;4.83;76.77;101471.06;5250302;28;20376;-65
2022/03/11 03:31:59;;;;;;;;;;;;;;;4.74;77.39;101476.59;5250463;28;20391;-65
2022/03/11 03:34:31;;;;;;;;;;;;;;;4.71;77.80;101470.84;5250317;28;19916;-65
2022/03/11 03:37:03;;;;;;;;;;;;;;;4.71;77.60;101471.66;5249756;28;19916;-65
2022/03/11 03:39:37;;;;;;;;;;;;;;;4.66;78.26;101468.75;5249870;28;19912;-65
2022/03/11 03:42:08;;;;;;;;;;;;;;;4.63;78.09;101471.84;5250183;28;20079;-66
2022/03/11 03:44:38;;;;;;;;;;;;;;;4.56;78.40;101467.50;5249807;28;20372;-65
2022/03/11 03:47:09;;;;;;;;;;;;;;;4.47;78.60;101472.22;5249608;28;19916;-67
2022/03/11 03:49:39;;;;;;;;;;;;;;;4.45;79.38;101471.59;5249739;28;19919;-65
2022/03/11 03:52:12;;;;;;;;;;;;;;;4.46;79.36;101465.22;5249543;28;20299;-65
2022/03/11 03:54:42;;;;;;;;;;;;;;;4.40;79.53;101471.34;5267553;28;19916;-65
2022/03/11 03:57:12;;;;;;;;;;;;;;;4.31;80.14;101468.06;5249403;28;20296;-65
2022/03/11 03:59:42;;;;;;;;;;;;;;;4.28;80.73;101478.31;5249421;28;20334;-65
2022/03/11 04:02:13;;;;;;;;;;;;;;;4.22;80.89;101471.91;5249710;28;19919;-65
2022/03/11 04:04:43;;;;;;;;;;;;;;;4.16;81.48;101475.38;5249509;28;19955;-65
2022/03/11 04:07:14;;;;;;;;;;;;;;;4.16;81.51;101466.53;5248973;28;19917;-65
2022/03/11 04:09:44;;;;;;;;;;;;;;;4.10;82.11;101473.50;5249717;28;19912;-65
2022/03/11 04:12:14;;;;;;;;;;;;;;;4.07;82.08;101468.53;5249233;28;19912;-65
2022/03/11 04:14:45;;;;;;;;;;;;;;;4.02;82.18;101469.16;5249091;28;19919;-64
2022/03/11 04:17:15;;;;;;;;;;;;;;;4.01;82.43;101458.66;5249631;28;20276;-65
2022/03/11 04:19:45;;;;;;;;;;;;;;;4.08;82.27;101468.34;5249139;28;19912;-65
2022/03/11 04:22:16;;;;;;;;;;;;;;;4.04;82.12;101461.75;5249001;28;19916;-65
2022/03/11 04:24:46;;;;;;;;;;;;;;;3.98;82.38;101457.22;5249150;28;19935;-65
2022/03/11 04:27:17;;;;;;;;;;;;;;;4.00;82.33;101459.69;5249256;28;19916;-65
2022/03/11 04:29:47;;;;;;;;;;;;;;;4.00;82.23;101462.38;5249192;28;19920;-64
2022/03/11 04:32:18;;;;;;;;;;;;;;;3.98;82.19;101451.03;5251223;28;19920;-65
2022/03/11 04:34:48;;;;;;;;;;;;;;;3.97;82.28;101460.09;5255676;28;19912;-65
2022/03/11 04:37:18;;;;;;;;;;;;;;;3.98;82.50;101448.38;5255758;28;19916;-67
2022/03/11 04:39:48;;;;;;;;;;;;;;;4.10;82.11;101443.28;5273918;28;19973;-65
2022/03/11 04:42:19;;;;;;;;;;;;;;;4.06;81.96;101453.53;5256152;28;19912;-65
2022/03/11 04:44:49;;;;;;;;;;;;;;;4.05;81.78;101455.38;5255674;28;19912;-66
2022/03/11 04:47:19;;;;;;;;;;;;;;;4.09;81.86;101447.78;5255774;28;19991;-65
2022/03/11 04:49:50;;;;;;;;;;;;;;;4.16;81.27;101437.13;5255840;28;19917;-65
2022/03/11 04:52:20;;;;;;;;;;;;;;;4.12;81.73;101438.56;5255804;28;19912;-66
2022/03/11 04:54:50;;;;;;;;;;;;;;;4.04;82.12;101444.91;5255608;28;19922;-65
2022/03/11 04:57:21;;;;;;;;;;;;;;;4.05;83.05;101442.00;5255783;28;19965;-65
2022/03/11 04:59:51;;;;;;;;;;;;;;;4.13;81.83;101437.53;5255660;28;19989;-66
2022/03/11 05:02:25;;;;;;;;;;;;;;;4.22;81.00;101433.66;5255853;28;19923;-65
2022/03/11 05:04:56;;;;;;;;;;;;;;;4.38;79.98;101433.28;5255421;28;19920;-65
2022/03/11 05:07:26;;;;;;;;;;;;;;;4.40;80.55;101431.25;5255819;28;19916;-65
2022/03/11 05:09:57;;;;;;;;;;;;;;;4.37;79.96;101431.66;5255429;28;19912;-65
2022/03/11 05:12:27;;;;;;;;;;;;;;;4.33;79.94;101430.44;5255631;28;19918;-66
2022/03/11 05:14:58;;;;;;;;;;;;;;;4.29;80.17;101440.69;5255308;28;19965;-66
2022/03/11 05:17:28;;;;;;;;;;;;;;;4.31;79.92;101441.31;5255403;28;19912;-66
2022/03/11 05:19:58;;;;;;;;;;;;;;;4.45;79.66;101436.00;5255767;28;19912;-66
2022/03/11 05:22:29;;;;;;;;;;;;;;;4.59;78.11;101438.53;5273925;28;20008;-65
2022/03/11 05:25:00;;;;;;;;;;;;;;;4.64;77.87;101429.88;5255213;28;19919;-65
2022/03/11 05:27:30;;;;;;;;;;;;;;;4.66;77.60;101436.66;5255828;28;19919;-65
2022/03/11 05:30:00;;;;;;;;;;;;;;;4.65;77.56;101431.50;5255805;28;19919;-64
2022/03/11 05:32:30;;;;;;;;;;;;;;;4.37;77.00;101370.97;5255281;28;20310;-65
2022/03/11 05:35:01;;;;;;;;;;;;;;;4.71;76.98;101414.66;5254905;28;19916;-65
2022/03/11 05:37:31;;;;;;;;;;;;;;;4.69;76.99;101420.22;5254533;28;19920;-64
2022/03/11 05:40:02;;;;;;;;;;;;;;;4.71;76.93;101412.81;5254356;28;20429;-65
2022/03/11 05:42:32;;;;;;;;;;;;;;;4.68;77.24;101413.19;5254229;28;20196;-66
2022/03/11 05:45:03;;;;;;;;;;;;;;;4.69;76.96;101408.69;5249758;28;19912;-65
2022/03/11 05:47:33;;;;;;;;;;;;;;;4.73;76.61;101405.41;5250665;28;20357;-65
2022/03/11 05:50:04;;;;;;;;;;;;;;;4.72;76.81;101414.44;5250620;28;20016;-65
2022/03/11 05:52:40;;;;;;;;;;;;;;;4.65;77.13;101418.13;5250638;28;19912;-65
2022/03/11 05:55:11;;;;;;;;;;;;;;;4.50;77.46;101412.97;5243360;28;19920;-69
2022/03/11 05:57:41;;;;;;;;;;;;;;;4.46;78.07;101422.44;5249786;28;19954;-65
2022/03/11 06:00:12;;;;;;;;;;;;;;;4.46;78.43;101406.38;5249755;28;19916;-65
2022/03/11 06:02:42;;;;;;;;;;;;;;;4.45;77.92;101415.44;5250438;28;19938;-69
2022/03/11 06:05:12;;;;;;;;;;;;;;;4.45;78.28;101410.06;5249803;28;19916;-65
2022/03/11 06:07:43;;;;;;;;;;;;;;;4.50;78.25;101409.47;5250256;28;19966;-67
2022/03/11 06:10:13;;;;;;;;;;;;;;;4.54;78.06;101408.06;5250376;28;20288;-65
2022/03/11 06:12:43;;;;;;;;;;;;;;;4.52;78.43;101402.09;5249940;28;19912;-65
2022/03/11 06:15:15;;;;;;;;;;;;;;;4.50;78.74;101396.09;5249691;28;19919;-64
2022/03/11 06:17:45;;;;;;;;;;;;;;;4.47;78.80;101408.03;5249833;28;19912;-66
2022/03/11 06:20:15;;;;;;;;;;;;;;;4.50;78.54;101404.97;5249983;28;20413;-65
2022/03/11 06:22:47;;;;;;;;;;;;;;;4.64;77.78;101393.22;5256683;28;19923;-64
2022/03/11 06:25:18;;;;;;;;;;;;;;;4.64;78.16;101406.59;5270298;28;20018;-66
2022/03/11 06:27:49;;;;;;;;;;;;;;;4.68;77.99;101404.34;5270505;28;20349;-66
2022/03/11 06:30:19;;;;;;;;;;;;;;;4.76;77.35;101401.50;5288488;28;19953;-64
2022/03/11 06:32:51;;;;;;;;;;;;;;;4.84;77.08;101408.50;5270425;28;19955;-64
2022/03/11 06:35:21;;;;;;;;;;;;;;;4.85;77.07;101410.16;5267983;28;19961;-65
2022/03/11 06:37:52;;;;;;;;;;;;;;;4.87;77.23;101408.09;5202765;28;1934914;-64
2022/03/11 06:40:22;;;;;;;;;;;;;;;4.91;77.04;101404.78;5270491;28;19998;-64
2022/03/11 06:42:53;;;;;;;;;;;;;;;4.90;77.69;101410.38;5270509;28;19934;-64
2022/03/11 06:45:24;;;;;;;;;;;;;;;4.91;77.29;101412.81;5271234;28;19927;-65
2022/03/11 06:47:55;;;;;;;;;;;;;;;5.04;76.76;101403.97;5271399;28;19915;-65
2022/03/11 06:50:25;;;;;;;;;;;;;;;5.07;76.69;101406.25;5271482;28;19934;-65
2022/03/11 06:52:56;;;;;;;;;;;;;;;5.19;76.06;101411.81;5271515;28;19912;-65
2022/03/11 06:55:26;;;;;;;;;;;;;;;5.22;76.23;101409.50;5270846;28;20007;-65
2022/03/11 06:57:56;;;;;;;;;;;;;;;5.32;75.40;101403.75;5271437;28;20010;-65
2022/03/11 07:00:27;;;;;;;;;;;;;;;5.35;75.62;101398.81;5271223;28;20341;-66
2022/03/11 07:02:58;;;;;;;;;;;;;;;5.35;76.09;101395.31;5271189;28;19911;-65
2022/03/11 07:05:29;;;;;;;;;;;;;;;5.38;75.65;101405.59;5270737;28;19923;-65
2022/03/11 07:07:59;;;;;;;;;;;;;;;5.46;75.04;101397.34;5271286;28;19912;-65
2022/03/11 07:10:29;;;;;;;;;;;;;;;5.57;74.24;101377.94;5270964;28;20295;-65
2022/03/11 07:13:00;;;;;;;;;;;;;;;5.70;74.27;101385.13;5270575;28;19912;-65
2022/03/11 07:15:30;;;;;;;;;;;;;;;5.73;74.72;101388.22;5270665;28;20325;-65
2022/03/11 07:18:00;;;;;;;;;;;;;;;5.77;74.14;101391.28;5288976;28;19934;-65
2022/03/11 07:20:30;;;;;;;;;;;;;;;5.89;74.05;101396.84;5270763;28;20313;-65
2022/03/11 07:23:01;;;;;;;;;;;;;;;5.91;74.02;101392.91;5270446;28;20006;-65
2022/03/11 07:25:31;;;;;;;;;;;;;;;5.91;74.91;101382.19;5270628;28;20863;-65
2022/03/11 07:28:01;;;;;;;;;;;;;;;5.95;74.01;101387.94;5270844;28;20425;-65
2022/03/11 07:30:32;;;;;;;;;;;;;;;6.01;74.29;101390.63;5270611;28;19916;-65
2022/03/11 07:33:02;;;;;;;;;;;;;;;6.12;74.25;101402.50;5270778;28;19923;-65
2022/03/11 07:35:33;;;;;;;;;;;;;;;6.21;74.11;101395.88;5270869;28;19912;-65
2022/03/11 07:38:03;;;;;;;;;;;;;;;6.24;74.17;101383.91;5271179;28;19911;-65
2022/03/11 07:40:33;;;;;;;;;;;;;;;6.31;73.30;101382.00;5270922;28;19912;-65
2022/03/11 07:43:06;;;;;;;;;;;;;;;6.44;73.29;101387.28;5270437;28;19916;-65
2022/03/11 07:45:37;;;;;;;;;;;;;;;6.48;73.50;101388.50;5270218;28;19939;-65
2022/03/11 07:48:07;;;;;;;;;;;;;;;6.23;72.65;101329.44;5270436;28;20015;-65
2022/03/11 07:50:38;;;;;;;;;;;;;;;6.60;74.15;101373.34;5270733;28;19954;-65
2022/03/11 07:53:08;;;;;;;;;;;;;;;6.64;74.00;101376.44;5270139;28;19947;-65
2022/03/11 07:55:38;;;;;;;;;;;;;;;6.73;73.58;101372.44;5270170;28;20390;-65
2022/03/11 07:58:09;;;;;;;;;;;;;;;6.87;73.55;101375.84;5270318;28;19991;-65
2022/03/11 08:00:41;;;;;;;;;;;;;;;6.91;73.91;101377.06;5270034;28;20011;-65
2022/03/11 08:03:11;;;;;;;;;;;;;;;7.04;73.71;101366.19;5270002;28;19918;-67
2022/03/11 08:05:42;;;;;;;;;;;;;;;7.16;73.35;101361.75;5269577;28;20022;-65
2022/03/11 08:08:13;;;;;;;;;;;;;;;7.25;73.87;101360.41;5258610;28;19964;-65
2022/03/11 08:10:43;;;;;;;;;;;;;;;7.32;73.81;101355.78;5265409;28;20329;-65
2022/03/11 08:13:13;;;;;;;;;;;;;;;7.40;74.21;101360.88;5265963;28;19919;-65
2022/03/11 08:15:43;;;;;;;;;;;;;;;7.50;74.53;101354.19;5266512;28;20281;-65
2022/03/11 08:18:14;;;;;;;;;;;;;;;7.63;73.49;101356.69;5267475;28;19912;-64
2022/03/11 08:20:44;;;;;;;;;;;;;;;7.68;74.26;101356.84;5266853;28;20395;-65
2022/03/11 08:23:14;;;;;;;;;;;;;;;7.72;74.40;101355.38;5266055;28;20312;-65
2022/03/11 08:25:46;;;;;;;;;;;;;;;7.78;74.28;101359.84;5266531;28;20351;-65
2022/03/11 08:28:16;;;;;;;;;;;;;;;7.87;74.60;101349.59;5266397;28;19951;-65
2022/03/11 08:30:47;;;;;;;;;;;;;;;7.89;75.21;101332.19;5266292;28;19952;-65
2022/03/11 08:33:20;;;;;;;;;;;;;;;7.97;75.31;101337.25;5265989;28;20348;-65
2022/03/11 08:35:51;;;;;;;;;;;;;;;8.07;75.22;101332.16;5266135;28;19962;-65
2022/03/11 08:38:21;;;;;;;;;;;;;;;8.17;74.98;101338.84;5267139;28;19912;-65
2022/03/11 08:40:52;;;;;;;;;;;;;;;8.21;75.69;101334.66;5266247;28;19924;-65
2022/03/11 08:43:22;;;;;;;;;;;;;;;8.28;75.18;101332.69;5267168;28;19912;-65
2022/03/11 08:45:52;;;;;;;;;;;;;;;8.42;75.69;101331.47;5266367;28;19939;-65
2022/03/11 08:48:23;;;;;;;;;;;;;;;8.54;76.07;101339.59;5265905;28;20003;-65
2022/03/11 08:50:54;;;;;;;;;;;;;;;8.71;76.53;101327.91;5266366;28;20032;-65
2022/03/11 08:53:24;;;;;;;;;;;;;;;8.79;77.87;101332.94;5265715;28;19912;-65
2022/03/11 08:55:54;;;;;;;;;;;;;;;8.88;76.55;101340.69;5266260;28;19972;-65
2022/03/11 08:58:25;;;;;;;;;;;;;;;8.97;76.64;101331.19;5266131;28;20061;-66
2022/03/11 09:00:55;;;;;;;;;;;;;;;9.04;76.78;101321.13;5266010;28;20312;-65
2022/03/11 09:03:26;;;;;;;;;;;;;;;9.05;77.90;101323.59;5265697;28;19912;-65
2022/03/11 09:05:58;;;;;;;;;;;;;;;9.25;77.17;101323.22;5265631;28;19918;-65
2022/03/11 09:08:28;;;;;;;;;;;;;;;9.42;76.51;101318.75;5266127;28;19918;-66
2022/03/11 09:10:58;;;;;;;;;;;;;;;9.59;77.44;101318.00;5265972;28;19912;-65
2022/03/11 09:13:29;;;;;;;;;;;;;;;9.69;77.15;101307.44;5266958;28;19919;-66
2022/03/11 09:15:59;;;;;;;;;;;;;;;9.85;75.25;101308.56;5266011;28;19916;-67
2022/03/11 09:18:29;;;;;;;;;;;;;;;9.99;75.82;101313.44;5266736;28;19965;-67
2022/03/11 09:21:01;;;;;;;;;;;;;;;10.14;75.33;101304.78;5269938;28;20368;-65
2022/03/11 09:23:31;;;;;;;;;;;;;;;10.29;76.79;101309.69;5259798;28;19952;-66
2022/03/11 09:26:02;;;;;;;;;;;;;;;10.47;76.19;101306.75;5253671;28;19959;-66
2022/03/11 09:28:32;;;;;;;;;;;;;;;10.59;76.14;101306.69;5253835;28;19962;-65
2022/03/11 09:31:08;;;;;;;;;;;;;;;10.74;74.94;101312.34;5264582;28;19938;-65
2022/03/11 09:33:38;;;;;;;;;;;;;;;10.82;75.57;101315.44;5258501;28;19916;-66
2022/03/11 09:36:09;;;;;;;;;;;;;;;10.92;75.69;101308.56;5264670;28;19916;-66
2022/03/11 09:38:39;;;;;;;;;;;;;;;10.97;75.40;101308.66;5266599;28;19912;-65
2022/03/11 09:41:10;;;;;;;;;;;;;;;11.12;74.75;101308.88;5273379;28;19972;-65
2022/03/11 09:43:40;;;;;;;;;;;;;;;11.20;75.33;101313.03;5262369;22;19975;-57
2022/03/11 09:46:11;;;;;;;;;;;;;;;11.31;76.25;101304.78;5209085;28;19920;-57
2022/03/11 09:48:42;;;;;;;;;;;;;;;11.42;75.95;101293.06;5210791;28;20277;-58
2022/03/11 09:51:12;;;;;;;;;;;;;;;11.54;76.47;101279.44;5210836;28;19962;-60
2022/03/11 09:53:43;;;;;;;;;;;;;;;11.57;76.94;101272.66;5228497;28;19913;-59
2022/03/11 09:56:13;;;;;;;;;;;;;;;11.70;77.11;101277.69;5210754;28;19940;-59
2022/03/11 09:58:43;;;;;;;;;;;;;;;11.81;75.74;101265.97;5210440;28;19963;-58
2022/03/11 10:01:14;;;;;;;;;;;;;;;11.90;76.59;101261.72;5210329;28;19917;-59
2022/03/11 10:03:44;;;;;;;;;;;;;;;11.94;76.11;101253.91;5210276;28;19913;-59
2022/03/11 10:06:14;;;;;;;;;;;;;;;11.96;76.43;101249.88;5210540;28;19921;-60
2022/03/11 10:08:46;;;;;;;;;;;;;;;12.13;77.33;101233.50;5228446;28;19912;-57
2022/03/11 10:11:22;;;;;;;;;;;;;;;12.22;75.49;101234.69;5210177;28;19916;-57
2022/03/11 10:13:54;;;;;;;;;;;;;;;12.29;77.90;101229.06;5210165;28;19913;-58
2022/03/11 10:22:42;;;;;;;;;;;;;;;12.77;78.46;101215.31;5236387;22;19925;-58
2022/03/11 10:25:16;;;;;;;;;;;;;;;12.91;76.67;101217.56;5239285;28;20295;-58
2022/03/11 10:28:05;;;;;;;;;;;;;;;13.03;77.32;101223.59;5231397;28;20020;-58
2022/03/11 10:30:37;;;;;;;;;;;;;;;13.03;78.04;101213.56;5230543;28;19978;-56
2022/03/11 10:33:08;;;;;;;;;;;;;;;13.11;78.40;101204.94;5231302;28;19919;-58
2022/03/11 10:35:39;;;;;;;;;;;;;;;13.30;79.43;101205.28;5251420;22;19924;-68
2022/03/11 10:38:11;;;;;;;;;;;;;;;13.37;78.87;101203.16;5291354;28;19949;-67
2022/03/11 10:40:42;;;;;;;;;;;;;;;13.41;78.97;101198.03;5271854;28;19967;-68
2022/03/11 10:43:14;;;;;;;;;;;;;;;13.44;78.49;101201.03;5279331;28;19913;-68
2022/03/11 10:45:53;;;;;;;;;;;;;;;13.45;79.08;101189.09;5252415;28;19977;-68
2022/03/11 10:48:42;;;;;;;;;;;;;;;13.55;81.06;101185.59;5252588;28;19912;-68
2022/03/11 10:51:33;;;;;;;;;;;;;;;13.70;79.79;101184.78;5270663;28;20291;-67
2022/03/11 10:54:09;;;;;;;;;;;;;;;13.70;78.61;101182.91;5251896;28;19912;-67
2022/03/11 10:56:40;;;;;;;;;;;;;;;13.74;78.23;101184.00;5250909;28;19955;-68
2022/03/11 10:59:23;;;;;;;;;;;;;;;13.89;78.65;101188.63;5286028;28;20013;-69
2022/03/11 11:01:54;;;;;;;;;;;;;;;13.93;77.21;101188.91;5270213;28;20383;-68
2022/03/11 11:04:25;;;;;;;;;;;;;;;13.88;77.76;101176.13;5286148;28;19916;-68
2022/03/11 11:06:56;;;;;;;;;;;;;;;14.02;79.45;101177.22;5285552;28;19970;-68
2022/03/11 11:09:28;;;;;;;;;;;;;;;14.04;77.87;101177.78;5252276;28;20023;-68
2022/03/11 11:11:59;;;;;;;;;;;;;;;14.03;77.04;101162.56;5251873;28;19912;-68
2022/03/11 11:14:30;;;;;;;;;;;;;;;13.95;77.30;101165.81;5251849;28;19912;-68
2022/03/11 11:17:02;;;;;;;;;;;;;;;14.04;77.91;101174.25;5252338;28;20407;-73
2022/03/11 11:19:33;;;;;;;;;;;;;;;14.05;76.74;101168.53;5285744;28;20239;-68
2022/03/11 11:22:04;;;;;;;;;;;;;;;13.99;76.20;101166.09;5250883;28;20074;-68
2022/03/11 11:24:35;;;;;;;;;;;;;;;14.03;78.55;101169.91;5283433;28;19912;-68
2022/03/11 11:27:06;;;;;;;;;;;;;;;14.12;76.92;101169.09;5250790;28;19916;-68
2022/03/11 11:29:37;;;;;;;;;;;;;;;14.25;78.44;101166.91;5284877;28;20303;-68
2022/03/11 11:32:07;;;;;;;;;;;;;;;14.17;77.07;101160.94;5251063;28;19963;-67
2022/03/11 11:34:38;;;;;;;;;;;;;;;14.29;77.61;101163.38;5284686;28;20294;-67
2022/03/11 11:37:28;;;;;;;;;;;;;;;14.46;78.10;101149.50;5269216;28;19916;-67
2022/03/11 11:39:58;;;;;;;;;;;;;;;14.54;77.94;101151.69;5284545;28;19916;-67
2022/03/11 11:42:28;;;;;;;;;;;;;;;14.58;76.25;101143.78;5249456;28;19916;-67
2022/03/11 11:44:59;;;;;;;;;;;;;;;14.62;78.34;101132.09;5250035;28;19966;-67
2022/03/11 11:47:31;;;;;;;;;;;;;;;14.77;77.87;101123.88;5249862;28;19930;-67
2022/03/11 11:50:13;;;;;;;;;;;;;;;14.95;79.17;101116.22;5283936;28;19912;-67
2022/03/11 11:52:53;;;;;;;;;;;;;;;15.07;77.75;101105.81;5284064;28;20268;-67
2022/03/11 11:55:25;;;;;;;;;;;;;;;15.11;77.03;101093.28;5283797;28;19919;-67
2022/03/11 11:57:56;;;;;;;;;;;;;;;15.12;77.97;101108.50;5250228;28;19919;-67
2022/03/11 12:00:26;;;;;;;;;;;;;;;15.14;75.89;101100.88;5250348;28;20371;-67
2022/03/11 12:02:57;;;;;;;;;;;;;;;15.15;77.80;101097.06;5249949;28;20534;-67
2022/03/11 12:05:42;;;;;;;;;;;;;;;15.12;76.26;101098.44;5249682;28;19916;-67
2022/03/11 12:08:31;;;;;;;;;;;;;;;15.10;78.26;101095.19;5250121;28;19918;-68
2022/03/11 12:11:02;;;;;;;;;;;;;;;15.26;77.84;101093.19;5249531;28;19912;-67
2022/03/11 12:13:32;;;;;;;;;;;;;;;15.27;77.77;101094.00;5267585;28;20241;-67
2022/03/11 12:16:04;;;;;;;;;;;;;;;15.39;77.23;101091.75;5250387;28;19912;-67
2022/03/11 12:18:35;;;;;;;;;;;;;;;15.53;77.92;101073.69;5283961;28;20006;-67
2022/03/11 12:21:07;;;;;;;;;;;;;;;15.73;76.74;101089.09;5283755;28;19912;-67
2022/03/11 12:23:38;;;;;;;;;;;;;;;15.50;75.91;101077.78;5249529;28;19916;-69
2022/03/11 12:26:09;;;;;;;;;;;;;;;15.68;77.03;101068.16;5250191;28;19927;-68
2022/03/11 12:28:42;;;;;;;;;;;;;;;15.83;76.87;101056.34;5283967;28;19912;-67
2022/03/11 12:31:24;;;;;;;;;;;;;;;15.88;76.02;101064.44;5249883;28;19912;-66
2022/03/11 12:33:54;;;;;;;;;;;;;;;15.89;74.57;101057.88;5249229;28;20299;-67
2022/03/11 12:36:27;;;;;;;;;;;;;;;15.84;74.78;101057.97;5249662;28;19915;-67
2022/03/11 12:38:57;;;;;;;;;;;;;;;15.82;74.78;101046.53;5249899;28;19918;-67
2022/03/11 12:41:28;;;;;;;;;;;;;;;15.77;73.91;101054.75;5249745;28;20426;-67
2022/03/11 12:43:59;;;;;;;;;;;;;;;15.88;75.74;101045.38;5283137;28;20016;-67
2022/03/11 12:46:29;;;;;;;;;;;;;;;16.00;74.10;101043.06;5248880;28;20375;-67
2022/03/11 12:48:59;;;;;;;;;;;;;;;16.07;74.58;101031.84;5249685;28;19918;-67
2022/03/11 12:51:30;;;;;;;;;;;;;;;16.14;74.97;101041.31;5249564;28;20429;-67
2022/03/11 12:54:13;;;;;;;;;;;;;;;16.18;76.95;101019.72;5269113;28;19958;-67
2022/03/11 12:56:43;;;;;;;;;;;;;;;16.23;73.71;101027.84;5253805;28;20268;-67
2022/03/11 12:59:13;;;;;;;;;;;;;;;16.20;72.48;101026.50;5253884;28;19919;-67
2022/03/11 13:01:44;;;;;;;;;;;;;;;16.31;75.22;101024.50;5253636;28;19912;-66
2022/03/11 13:04:14;;;;;;;;;;;;;;;16.30;72.95;101024.78;5253322;28;20006;-66
2022/03/11 13:06:48;;;;;;;;;;;;;;;16.34;72.08;101025.84;5253408;28;19916;-67
2022/03/11 13:09:21;;;;;;;;;;;;;;;16.34;72.49;101023.09;5287234;28;19962;-67